sensor_id;sensor_type;location;lat;lon;timestamp;temperature;humidity
9329;DHT22;4703;48.748;19.142;2023-06-22T00:01:46;20.20;99.90
9329;DHT22;4703;48.748;19.142;2023-06-22T00:04:13;20.20;99.90
9329;DHT22;4703;48.748;19.142;2023-06-22T00:06:40;20.20;99.90
9329;DHT22;4703;48.748;19.142;2023-06-22T00:09:07;20.20;99.90
9329;DHT22;4703;48.748;19.142;2023-06-22T00:11:34;20.10;99.90
9329;DHT22;4703;48.748;19.142;2023-06-22T00:14:02;20.10;99.90
9329;DHT22;4703;48.748;19.142;2023-06-22T00:16:31;20.10;99.90
9329;DHT22;4703;48.748;19.142;2023-06-22T00:19:00;20.10;99.90
9329;DHT22;4703;48.748;19.142;2023-06-22T00:21:27;20.00;99.90
9329;DHT22;4703;48.748;19.142;2023-06-22T00:23:54;20.00;99.90
9329;DHT22;4703;48.748;19.142;2023-06-22T00:26:22;20.00;99.90
9329;DHT22;4703;48.748;19.142;2023-06-22T00:28:49;20.00;99.90
9329;DHT22;4703;48.748;19.142;2023-06-22T00:31:16;20.00;99.90
9329;DHT22;4703;48.748;19.142;2023-06-22T00:33:43;20.00;99.90
9329;DHT22;4703;48.748;19.142;2023-06-22T00:36:10;20.00;99.90
9329;DHT22;4703;48.748;19.142;2023-06-22T00:38:40;20.00;99.90
9329;DHT22;4703;48.748;19.142;2023-06-22T00:41:07;20.00;99.90
9329;DHT22;4703;48.748;19.142;2023-06-22T00:43:34;20.00;99.90
9329;DHT22;4703;48.748;19.142;2023-06-22T00:46:01;19.90;99.90
9329;DHT22;4703;48.748;19.142;2023-06-22T00:48:28;19.90;99.90
9329;DHT22;4703;48.748;19.142;2023-06-22T00:50:55;19.90;99.90
9329;DHT22;4703;48.748;19.142;2023-06-22T00:53:23;19.90;99.90
9329;DHT22;4703;48.748;19.142;2023-06-22T00:55:50;19.90;99.90
9329;DHT22;4703;48.748;19.142;2023-06-22T00:58:21;19.80;99.90
9329;DHT22;4703;48.748;19.142;2023-06-22T01:00:51;19.80;99.90
9329;DHT22;4703;48.748;19.142;2023-06-22T01:03:19;19.80;99.90
9329;DHT22;4703;48.748;19.142;2023-06-22T01:05:48;19.80;99.90
9329;DHT22;4703;48.748;19.142;2023-06-22T01:08:29;19.80;99.90
9329;DHT22;4703;48.748;19.142;2023-06-22T01:14:00;19.80;99.90
9329;DHT22;4703;48.748;19.142;2023-06-22T01:16:35;19.80;99.90
9329;DHT22;4703;48.748;19.142;2023-06-22T01:21:46;19.80;99.90
9329;DHT22;4703;48.748;19.142;2023-06-22T01:24:23;19.80;99.90
9329;DHT22;4703;48.748;19.142;2023-06-22T01:29:33;19.70;99.90
9329;DHT22;4703;48.748;19.142;2023-06-22T01:32:03;19.70;99.90
9329;DHT22;4703;48.748;19.142;2023-06-22T01:34:35;19.70;99.90
9329;DHT22;4703;48.748;19.142;2023-06-22T01:37:04;19.70;99.90
9329;DHT22;4703;48.748;19.142;2023-06-22T01:39:31;19.70;99.90
9329;DHT22;4703;48.748;19.142;2023-06-22T01:41:59;19.70;99.90
9329;DHT22;4703;48.748;19.142;2023-06-22T01:44:27;19.60;99.90
9329;DHT22;4703;48.748;19.142;2023-06-22T01:46:55;19.60;99.90
9329;DHT22;4703;48.748;19.142;2023-06-22T01:49:23;19.60;99.90
9329;DHT22;4703;48.748;19.142;2023-06-22T01:51:51;19.60;99.90
9329;DHT22;4703;48.748;19.142;2023-06-22T01:54:18;19.60;99.90
9329;DHT22;4703;48.748;19.142;2023-06-22T01:56:45;19.50;99.90
9329;DHT22;4703;48.748;19.142;2023-06-22T01:59:24;19.50;99.90
9329;DHT22;4703;48.748;19.142;2023-06-22T02:02:07;19.50;99.90
9329;DHT22;4703;48.748;19.142;2023-06-22T02:04:44;19.50;99.90
9329;DHT22;4703;48.748;19.142;2023-06-22T02:07:16;19.50;99.90
9329;DHT22;4703;48.748;19.142;2023-06-22T02:09:47;19.50;99.90
9329;DHT22;4703;48.748;19.142;2023-06-22T02:12:19;19.50;99.90
9329;DHT22;4703;48.748;19.142;2023-06-22T02:14:48;19.40;99.90
9329;DHT22;4703;48.748;19.142;2023-06-22T02:17:17;19.50;99.90
9329;DHT22;4703;48.748;19.142;2023-06-22T02:19:45;19.40;99.90
9329;DHT22;4703;48.748;19.142;2023-06-22T02:22:12;19.40;99.90
9329;DHT22;4703;48.748;19.142;2023-06-22T02:24:40;19.40;99.90
9329;DHT22;4703;48.748;19.142;2023-06-22T02:27:07;19.40;99.90
9329;DHT22;4703;48.748;19.142;2023-06-22T02:29:34;19.40;99.90
9329;DHT22;4703;48.748;19.142;2023-06-22T02:32:01;19.40;99.90
9329;DHT22;4703;48.748;19.142;2023-06-22T02:34:29;19.40;99.90
9329;DHT22;4703;48.748;19.142;2023-06-22T02:36:56;19.40;99.90
9329;DHT22;4703;48.748;19.142;2023-06-22T02:39:24;19.40;99.90
9329;DHT22;4703;48.748;19.142;2023-06-22T02:41:52;19.40;99.90
9329;DHT22;4703;48.748;19.142;2023-06-22T02:44:21;19.40;99.90
9329;DHT22;4703;48.748;19.142;2023-06-22T02:46:48;19.40;99.90
9329;DHT22;4703;48.748;19.142;2023-06-22T02:49:16;19.40;99.90
9329;DHT22;4703;48.748;19.142;2023-06-22T02:51:46;19.30;99.90
9329;DHT22;4703;48.748;19.142;2023-06-22T02:54:14;19.20;99.90
9329;DHT22;4703;48.748;19.142;2023-06-22T02:56:42;19.30;99.90
9329;DHT22;4703;48.748;19.142;2023-06-22T02:59:11;19.30;99.90
9329;DHT22;4703;48.748;19.142;2023-06-22T03:01:38;19.30;99.90
9329;DHT22;4703;48.748;19.142;2023-06-22T03:04:07;19.30;99.90
9329;DHT22;4703;48.748;19.142;2023-06-22T03:06:36;19.30;99.90
9329;DHT22;4703;48.748;19.142;2023-06-22T03:09:04;19.20;99.90
9329;DHT22;4703;48.748;19.142;2023-06-22T03:11:35;19.20;99.90
9329;DHT22;4703;48.748;19.142;2023-06-22T03:14:02;19.10;99.90
9329;DHT22;4703;48.748;19.142;2023-06-22T03:16:29;19.20;99.90
9329;DHT22;4703;48.748;19.142;2023-06-22T03:18:56;19.20;99.90
9329;DHT22;4703;48.748;19.142;2023-06-22T03:21:25;19.20;99.90
9329;DHT22;4703;48.748;19.142;2023-06-22T03:23:55;19.20;99.90
9329;DHT22;4703;48.748;19.142;2023-06-22T03:26:22;19.10;99.90
9329;DHT22;4703;48.748;19.142;2023-06-22T03:28:50;19.10;99.90
9329;DHT22;4703;48.748;19.142;2023-06-22T03:31:17;19.10;99.90
9329;DHT22;4703;48.748;19.142;2023-06-22T03:33:49;19.10;99.90
9329;DHT22;4703;48.748;19.142;2023-06-22T03:36:18;19.10;99.90
9329;DHT22;4703;48.748;19.142;2023-06-22T03:38:50;19.10;99.90
9329;DHT22;4703;48.748;19.142;2023-06-22T03:41:18;19.10;99.90
9329;DHT22;4703;48.748;19.142;2023-06-22T03:43:45;19.00;99.90
9329;DHT22;4703;48.748;19.142;2023-06-22T03:46:13;19.10;99.90
9329;DHT22;4703;48.748;19.142;2023-06-22T03:48:40;19.10;99.90
9329;DHT22;4703;48.748;19.142;2023-06-22T03:51:07;19.10;99.90
9329;DHT22;4703;48.748;19.142;2023-06-22T03:53:34;19.10;99.90
9329;DHT22;4703;48.748;19.142;2023-06-22T03:56:01;19.00;99.90
9329;DHT22;4703;48.748;19.142;2023-06-22T03:58:28;19.10;99.90
9329;DHT22;4703;48.748;19.142;2023-06-22T04:00:59;19.10;99.90
9329;DHT22;4703;48.748;19.142;2023-06-22T04:03:26;19.00;99.90
9329;DHT22;4703;48.748;19.142;2023-06-22T04:05:54;19.00;99.90
9329;DHT22;4703;48.748;19.142;2023-06-22T04:08:21;19.00;99.90
9329;DHT22;4703;48.748;19.142;2023-06-22T04:10:48;19.10;99.90
9329;DHT22;4703;48.748;19.142;2023-06-22T04:13:15;19.00;99.90
9329;DHT22;4703;48.748;19.142;2023-06-22T04:15:42;19.10;99.90
9329;DHT22;4703;48.748;19.142;2023-06-22T04:18:09;19.10;99.90
9329;DHT22;4703;48.748;19.142;2023-06-22T04:20:36;19.00;99.90
9329;DHT22;4703;48.748;19.142;2023-06-22T04:23:03;19.10;99.90
9329;DHT22;4703;48.748;19.142;2023-06-22T04:25:30;19.10;99.90
9329;DHT22;4703;48.748;19.142;2023-06-22T04:27:57;19.00;99.90
9329;DHT22;4703;48.748;19.142;2023-06-22T04:30:24;19.10;99.90
9329;DHT22;4703;48.748;19.142;2023-06-22T04:32:51;19.10;99.90
9329;DHT22;4703;48.748;19.142;2023-06-22T04:35:24;19.10;99.90
9329;DHT22;4703;48.748;19.142;2023-06-22T04:37:53;19.10;99.90
9329;DHT22;4703;48.748;19.142;2023-06-22T04:40:24;19.00;99.90
9329;DHT22;4703;48.748;19.142;2023-06-22T04:42:53;19.20;99.90
9329;DHT22;4703;48.748;19.142;2023-06-22T04:45:20;19.20;99.90
9329;DHT22;4703;48.748;19.142;2023-06-22T04:47:48;19.30;99.90
9329;DHT22;4703;48.748;19.142;2023-06-22T04:50:16;19.20;99.90
9329;DHT22;4703;48.748;19.142;2023-06-22T04:52:44;19.20;99.90
9329;DHT22;4703;48.748;19.142;2023-06-22T04:55:12;19.30;99.90
9329;DHT22;4703;48.748;19.142;2023-06-22T04:57:41;19.30;99.90
9329;DHT22;4703;48.748;19.142;2023-06-22T05:00:12;19.30;99.90
9329;DHT22;4703;48.748;19.142;2023-06-22T05:02:40;19.30;99.90
9329;DHT22;4703;48.748;19.142;2023-06-22T05:05:07;19.40;99.90
9329;DHT22;4703;48.748;19.142;2023-06-22T05:07:36;19.40;99.90
9329;DHT22;4703;48.748;19.142;2023-06-22T05:10:03;19.40;99.90
9329;DHT22;4703;48.748;19.142;2023-06-22T05:12:31;19.40;99.90
9329;DHT22;4703;48.748;19.142;2023-06-22T05:14:58;19.50;99.90
9329;DHT22;4703;48.748;19.142;2023-06-22T05:17:26;19.50;99.90
9329;DHT22;4703;48.748;19.142;2023-06-22T05:19:53;19.60;99.90
9329;DHT22;4703;48.748;19.142;2023-06-22T05:22:21;19.60;99.90
9329;DHT22;4703;48.748;19.142;2023-06-22T05:24:48;19.70;99.90
9329;DHT22;4703;48.748;19.142;2023-06-22T05:27:15;19.80;99.90
9329;DHT22;4703;48.748;19.142;2023-06-22T05:29:42;19.90;99.90
9329;DHT22;4703;48.748;19.142;2023-06-22T05:32:09;19.90;99.90
9329;DHT22;4703;48.748;19.142;2023-06-22T05:34:36;20.00;99.90
9329;DHT22;4703;48.748;19.142;2023-06-22T05:37:05;20.00;99.90
9329;DHT22;4703;48.748;19.142;2023-06-22T05:39:32;20.00;99.90
9329;DHT22;4703;48.748;19.142;2023-06-22T05:41:59;20.10;99.90
9329;DHT22;4703;48.748;19.142;2023-06-22T05:44:26;20.10;99.90
9329;DHT22;4703;48.748;19.142;2023-06-22T05:46:53;20.10;99.90
9329;DHT22;4703;48.748;19.142;2023-06-22T05:49:20;20.20;99.90
9329;DHT22;4703;48.748;19.142;2023-06-22T05:51:49;20.20;99.90
9329;DHT22;4703;48.748;19.142;2023-06-22T05:54:16;20.20;99.90
9329;DHT22;4703;48.748;19.142;2023-06-22T05:56:44;20.20;99.90
9329;DHT22;4703;48.748;19.142;2023-06-22T05:59:11;20.20;99.90
9329;DHT22;4703;48.748;19.142;2023-06-22T06:01:39;20.20;99.90
9329;DHT22;4703;48.748;19.142;2023-06-22T06:04:07;20.30;99.90
9329;DHT22;4703;48.748;19.142;2023-06-22T06:06:35;20.30;99.90
9329;DHT22;4703;48.748;19.142;2023-06-22T06:09:04;20.40;99.90
9329;DHT22;4703;48.748;19.142;2023-06-22T06:11:31;20.40;99.90
9329;DHT22;4703;48.748;19.142;2023-06-22T06:13:59;20.50;99.90
9329;DHT22;4703;48.748;19.142;2023-06-22T06:16:26;20.50;99.90
9329;DHT22;4703;48.748;19.142;2023-06-22T06:18:53;20.50;99.90
9329;DHT22;4703;48.748;19.142;2023-06-22T06:21:22;20.60;99.90
9329;DHT22;4703;48.748;19.142;2023-06-22T06:23:49;20.60;99.90
9329;DHT22;4703;48.748;19.142;2023-06-22T06:26:16;20.60;99.90
9329;DHT22;4703;48.748;19.142;2023-06-22T06:28:44;20.60;99.90
9329;DHT22;4703;48.748;19.142;2023-06-22T06:31:11;20.70;99.90
9329;DHT22;4703;48.748;19.142;2023-06-22T06:33:39;20.70;99.90
9329;DHT22;4703;48.748;19.142;2023-06-22T06:36:06;20.70;99.90
9329;DHT22;4703;48.748;19.142;2023-06-22T06:38:35;20.80;99.90
9329;DHT22;4703;48.748;19.142;2023-06-22T06:41:02;20.80;99.90
9329;DHT22;4703;48.748;19.142;2023-06-22T06:43:29;20.80;99.90
9329;DHT22;4703;48.748;19.142;2023-06-22T06:45:56;20.80;99.90
9329;DHT22;4703;48.748;19.142;2023-06-22T06:48:23;20.90;99.90
9329;DHT22;4703;48.748;19.142;2023-06-22T06:50:50;20.90;99.90
9329;DHT22;4703;48.748;19.142;2023-06-22T06:53:17;21.00;99.90
9329;DHT22;4703;48.748;19.142;2023-06-22T06:55:44;21.00;99.90
9329;DHT22;4703;48.748;19.142;2023-06-22T06:58:12;21.00;99.90
9329;DHT22;4703;48.748;19.142;2023-06-22T07:00:40;21.00;99.90
9329;DHT22;4703;48.748;19.142;2023-06-22T07:03:08;21.10;99.90
9329;DHT22;4703;48.748;19.142;2023-06-22T07:05:35;21.10;99.90
9329;DHT22;4703;48.748;19.142;2023-06-22T07:08:02;21.10;99.90
9329;DHT22;4703;48.748;19.142;2023-06-22T07:10:29;21.10;99.90
9329;DHT22;4703;48.748;19.142;2023-06-22T07:12:57;21.20;99.90
9329;DHT22;4703;48.748;19.142;2023-06-22T07:15:24;21.20;99.90
9329;DHT22;4703;48.748;19.142;2023-06-22T07:17:51;21.20;99.90
9329;DHT22;4703;48.748;19.142;2023-06-22T07:20:19;21.30;99.90
9329;DHT22;4703;48.748;19.142;2023-06-22T07:22:46;21.30;99.90
9329;DHT22;4703;48.748;19.142;2023-06-22T07:25:13;21.40;99.90
9329;DHT22;4703;48.748;19.142;2023-06-22T07:27:46;21.40;99.90
9329;DHT22;4703;48.748;19.142;2023-06-22T07:30:28;21.50;99.90
9329;DHT22;4703;48.748;19.142;2023-06-22T07:32:57;21.50;99.90
9329;DHT22;4703;48.748;19.142;2023-06-22T07:35:25;21.60;99.90
9329;DHT22;4703;48.748;19.142;2023-06-22T07:37:52;21.70;99.90
9329;DHT22;4703;48.748;19.142;2023-06-22T07:40:19;21.70;99.90
9329;DHT22;4703;48.748;19.142;2023-06-22T07:42:46;21.80;99.90
9329;DHT22;4703;48.748;19.142;2023-06-22T07:45:14;21.80;99.90
9329;DHT22;4703;48.748;19.142;2023-06-22T07:47:41;21.80;99.90
9329;DHT22;4703;48.748;19.142;2023-06-22T07:50:09;21.80;99.90
9329;DHT22;4703;48.748;19.142;2023-06-22T07:52:37;21.80;99.90
9329;DHT22;4703;48.748;19.142;2023-06-22T07:55:04;21.80;99.90
9329;DHT22;4703;48.748;19.142;2023-06-22T07:57:31;21.80;99.90
9329;DHT22;4703;48.748;19.142;2023-06-22T08:00:03;21.80;99.90
9329;DHT22;4703;48.748;19.142;2023-06-22T08:02:39;21.90;99.90
9329;DHT22;4703;48.748;19.142;2023-06-22T08:05:09;22.00;99.90
9329;DHT22;4703;48.748;19.142;2023-06-22T08:07:56;22.00;99.90
9329;DHT22;4703;48.748;19.142;2023-06-22T08:10:23;22.10;99.90
9329;DHT22;4703;48.748;19.142;2023-06-22T08:12:50;22.10;99.90
9329;DHT22;4703;48.748;19.142;2023-06-22T08:15:19;22.20;99.90
9329;DHT22;4703;48.748;19.142;2023-06-22T08:17:46;22.20;99.90
9329;DHT22;4703;48.748;19.142;2023-06-22T08:20:13;22.30;99.90
9329;DHT22;4703;48.748;19.142;2023-06-22T08:22:41;22.30;99.90
9329;DHT22;4703;48.748;19.142;2023-06-22T08:25:10;22.40;99.90
9329;DHT22;4703;48.748;19.142;2023-06-22T08:27:37;22.40;99.90
9329;DHT22;4703;48.748;19.142;2023-06-22T08:30:05;22.40;99.90
9329;DHT22;4703;48.748;19.142;2023-06-22T08:32:34;22.50;99.90
9329;DHT22;4703;48.748;19.142;2023-06-22T08:35:01;22.50;99.90
9329;DHT22;4703;48.748;19.142;2023-06-22T08:37:28;22.70;99.90
9329;DHT22;4703;48.748;19.142;2023-06-22T08:39:59;22.70;99.90
9329;DHT22;4703;48.748;19.142;2023-06-22T08:42:31;22.80;99.90
9329;DHT22;4703;48.748;19.142;2023-06-22T08:44:58;22.80;99.90
9329;DHT22;4703;48.748;19.142;2023-06-22T08:47:27;22.90;99.90
9329;DHT22;4703;48.748;19.142;2023-06-22T08:49:55;23.10;99.90
9329;DHT22;4703;48.748;19.142;2023-06-22T08:52:23;23.10;99.90
9329;DHT22;4703;48.748;19.142;2023-06-22T08:54:50;23.10;99.90
9329;DHT22;4703;48.748;19.142;2023-06-22T08:57:18;23.20;99.90
9329;DHT22;4703;48.748;19.142;2023-06-22T08:59:45;23.30;99.90
9329;DHT22;4703;48.748;19.142;2023-06-22T09:02:12;23.40;99.90
9329;DHT22;4703;48.748;19.142;2023-06-22T09:04:39;23.40;99.90
9329;DHT22;4703;48.748;19.142;2023-06-22T09:07:07;23.50;99.90
9329;DHT22;4703;48.748;19.142;2023-06-22T09:09:34;23.50;99.90
9329;DHT22;4703;48.748;19.142;2023-06-22T09:12:01;23.60;99.90
9329;DHT22;4703;48.748;19.142;2023-06-22T09:14:28;23.80;99.90
9329;DHT22;4703;48.748;19.142;2023-06-22T09:16:55;23.90;99.90
9329;DHT22;4703;48.748;19.142;2023-06-22T09:19:22;23.90;99.90
9329;DHT22;4703;48.748;19.142;2023-06-22T09:21:49;24.00;99.90
9329;DHT22;4703;48.748;19.142;2023-06-22T09:24:16;24.00;99.90
9329;DHT22;4703;48.748;19.142;2023-06-22T09:26:43;24.10;99.90
9329;DHT22;4703;48.748;19.142;2023-06-22T09:29:10;24.20;99.90
9329;DHT22;4703;48.748;19.142;2023-06-22T09:31:37;24.20;99.90
9329;DHT22;4703;48.748;19.142;2023-06-22T09:34:04;24.30;99.90
9329;DHT22;4703;48.748;19.142;2023-06-22T09:36:31;24.30;99.90
9329;DHT22;4703;48.748;19.142;2023-06-22T09:38:58;24.30;99.90
9329;DHT22;4703;48.748;19.142;2023-06-22T09:41:28;24.40;99.90
9329;DHT22;4703;48.748;19.142;2023-06-22T09:43:55;24.50;99.90
9329;DHT22;4703;48.748;19.142;2023-06-22T09:46:23;24.50;99.90
9329;DHT22;4703;48.748;19.142;2023-06-22T09:48:52;24.60;99.90
9329;DHT22;4703;48.748;19.142;2023-06-22T09:51:19;24.70;99.90
9329;DHT22;4703;48.748;19.142;2023-06-22T09:53:48;24.00;99.90
9329;DHT22;4703;48.748;19.142;2023-06-22T09:56:15;24.90;99.90
9329;DHT22;4703;48.748;19.142;2023-06-22T09:58:43;25.10;99.90
9329;DHT22;4703;48.748;19.142;2023-06-22T10:01:11;25.10;99.90
9329;DHT22;4703;48.748;19.142;2023-06-22T10:03:38;25.10;99.90
9329;DHT22;4703;48.748;19.142;2023-06-22T10:06:05;25.20;99.90
9329;DHT22;4703;48.748;19.142;2023-06-22T10:08:32;25.30;99.90
9329;DHT22;4703;48.748;19.142;2023-06-22T10:10:59;25.40;99.90
9329;DHT22;4703;48.748;19.142;2023-06-22T10:13:26;25.50;99.90
9329;DHT22;4703;48.748;19.142;2023-06-22T10:15:53;25.60;99.90
9329;DHT22;4703;48.748;19.142;2023-06-22T10:18:21;25.70;99.90
9329;DHT22;4703;48.748;19.142;2023-06-22T10:20:49;26.00;99.90
9329;DHT22;4703;48.748;19.142;2023-06-22T10:23:20;26.10;99.90
9329;DHT22;4703;48.748;19.142;2023-06-22T10:25:47;26.30;99.90
9329;DHT22;4703;48.748;19.142;2023-06-22T10:28:15;26.40;99.90
9329;DHT22;4703;48.748;19.142;2023-06-22T10:30:42;26.60;99.90
9329;DHT22;4703;48.748;19.142;2023-06-22T10:33:10;26.90;99.90
9329;DHT22;4703;48.748;19.142;2023-06-22T10:35:38;27.20;99.90
9329;DHT22;4703;48.748;19.142;2023-06-22T10:38:06;27.40;99.90
9329;DHT22;4703;48.748;19.142;2023-06-22T10:40:33;27.50;99.90
9329;DHT22;4703;48.748;19.142;2023-06-22T10:43:00;27.70;99.90
9329;DHT22;4703;48.748;19.142;2023-06-22T10:45:27;27.80;99.90
9329;DHT22;4703;48.748;19.142;2023-06-22T10:47:56;28.00;99.90
9329;DHT22;4703;48.748;19.142;2023-06-22T10:50:24;28.30;99.90
9329;DHT22;4703;48.748;19.142;2023-06-22T10:52:52;28.60;99.80
9329;DHT22;4703;48.748;19.142;2023-06-22T10:55:20;28.70;99.10
9329;DHT22;4703;48.748;19.142;2023-06-22T10:57:47;28.80;99.30
9329;DHT22;4703;48.748;19.142;2023-06-22T11:00:15;29.10;98.50
9329;DHT22;4703;48.748;19.142;2023-06-22T11:02:43;29.30;97.90
9329;DHT22;4703;48.748;19.142;2023-06-22T11:05:11;29.50;98.00
9329;DHT22;4703;48.748;19.142;2023-06-22T11:07:42;29.70;96.80
9329;DHT22;4703;48.748;19.142;2023-06-22T11:10:10;29.70;96.50
9329;DHT22;4703;48.748;19.142;2023-06-22T11:12:38;30.00;96.50
9329;DHT22;4703;48.748;19.142;2023-06-22T11:15:06;30.20;96.40
9329;DHT22;4703;48.748;19.142;2023-06-22T11:17:34;30.40;96.90
9329;DHT22;4703;48.748;19.142;2023-06-22T11:20:02;30.70;95.50
9329;DHT22;4703;48.748;19.142;2023-06-22T11:22:40;31.20;94.20
9329;DHT22;4703;48.748;19.142;2023-06-22T11:25:08;31.60;93.70
9329;DHT22;4703;48.748;19.142;2023-06-22T11:27:35;32.00;92.50
9329;DHT22;4703;48.748;19.142;2023-06-22T11:30:02;32.40;91.50
9329;DHT22;4703;48.748;19.142;2023-06-22T11:32:30;32.50;90.20
9329;DHT22;4703;48.748;19.142;2023-06-22T11:34:57;32.60;90.60
9329;DHT22;4703;48.748;19.142;2023-06-22T11:37:24;32.60;89.60
9329;DHT22;4703;48.748;19.142;2023-06-22T11:39:52;32.70;90.40
9329;DHT22;4703;48.748;19.142;2023-06-22T11:42:33;32.90;90.00
9329;DHT22;4703;48.748;19.142;2023-06-22T11:45:01;33.00;89.30
9329;DHT22;4703;48.748;19.142;2023-06-22T11:47:29;33.20;86.70
9329;DHT22;4703;48.748;19.142;2023-06-22T11:49:56;33.10;83.10
9329;DHT22;4703;48.748;19.142;2023-06-22T11:52:23;33.00;86.60
9329;DHT22;4703;48.748;19.142;2023-06-22T11:54:50;34.10;86.60
9329;DHT22;4703;48.748;19.142;2023-06-22T11:57:17;33.10;85.20
9329;DHT22;4703;48.748;19.142;2023-06-22T11:59:44;33.20;84.30
9329;DHT22;4703;48.748;19.142;2023-06-22T12:02:11;33.40;85.10
9329;DHT22;4703;48.748;19.142;2023-06-22T12:04:38;33.30;84.20
9329;DHT22;4703;48.748;19.142;2023-06-22T12:07:05;33.30;83.80
9329;DHT22;4703;48.748;19.142;2023-06-22T12:09:32;33.50;80.90
9329;DHT22;4703;48.748;19.142;2023-06-22T12:11:59;33.50;82.30
9329;DHT22;4703;48.748;19.142;2023-06-22T12:14:26;33.70;84.90
9329;DHT22;4703;48.748;19.142;2023-06-22T12:16:56;33.90;80.80
9329;DHT22;4703;48.748;19.142;2023-06-22T12:19:23;34.20;78.90
9329;DHT22;4703;48.748;19.142;2023-06-22T12:21:50;34.30;79.20
9329;DHT22;4703;48.748;19.142;2023-06-22T12:24:17;34.30;82.00
9329;DHT22;4703;48.748;19.142;2023-06-22T12:26:44;34.30;81.60
9329;DHT22;4703;48.748;19.142;2023-06-22T12:29:11;34.40;80.80
9329;DHT22;4703;48.748;19.142;2023-06-22T12:31:38;34.70;78.40
9329;DHT22;4703;48.748;19.142;2023-06-22T12:34:06;34.80;78.10
9329;DHT22;4703;48.748;19.142;2023-06-22T12:36:33;35.20;76.90
9329;DHT22;4703;48.748;19.142;2023-06-22T12:39:00;35.50;74.00
9329;DHT22;4703;48.748;19.142;2023-06-22T12:41:27;35.60;72.70
9329;DHT22;4703;48.748;19.142;2023-06-22T12:43:54;35.70;71.50
9329;DHT22;4703;48.748;19.142;2023-06-22T12:46:24;35.80;68.40
9329;DHT22;4703;48.748;19.142;2023-06-22T12:48:51;36.10;66.50
9329;DHT22;4703;48.748;19.142;2023-06-22T12:51:22;36.00;65.80
9329;DHT22;4703;48.748;19.142;2023-06-22T12:53:49;36.20;63.30
9329;DHT22;4703;48.748;19.142;2023-06-22T12:56:16;36.00;64.00
9329;DHT22;4703;48.748;19.142;2023-06-22T12:58:43;35.90;64.60
9329;DHT22;4703;48.748;19.142;2023-06-22T13:01:10;36.10;63.10
9329;DHT22;4703;48.748;19.142;2023-06-22T13:03:37;35.90;64.00
9329;DHT22;4703;48.748;19.142;2023-06-22T13:06:04;35.90;63.70
9329;DHT22;4703;48.748;19.142;2023-06-22T13:08:32;35.80;66.70
9329;DHT22;4703;48.748;19.142;2023-06-22T13:11:19;35.70;62.70
9329;DHT22;4703;48.748;19.142;2023-06-22T13:13:46;35.40;64.60
9329;DHT22;4703;48.748;19.142;2023-06-22T13:16:13;35.20;65.50
9329;DHT22;4703;48.748;19.142;2023-06-22T13:18:40;35.20;64.00
9329;DHT22;4703;48.748;19.142;2023-06-22T13:21:07;35.20;62.90
9329;DHT22;4703;48.748;19.142;2023-06-22T13:23:34;35.30;59.50
9329;DHT22;4703;48.748;19.142;2023-06-22T13:26:01;35.40;60.40
9329;DHT22;4703;48.748;19.142;2023-06-22T13:28:29;35.30;62.50
9329;DHT22;4703;48.748;19.142;2023-06-22T13:30:57;35.40;63.00
9329;DHT22;4703;48.748;19.142;2023-06-22T13:33:24;35.50;62.80
9329;DHT22;4703;48.748;19.142;2023-06-22T13:35:51;35.70;59.30
9329;DHT22;4703;48.748;19.142;2023-06-22T13:38:18;37.00;60.60
9329;DHT22;4703;48.748;19.142;2023-06-22T13:40:45;36.20;59.50
9329;DHT22;4703;48.748;19.142;2023-06-22T13:43:14;36.50;60.70
9329;DHT22;4703;48.748;19.142;2023-06-22T13:45:42;36.80;59.50
9329;DHT22;4703;48.748;19.142;2023-06-22T13:48:10;37.00;60.00
9329;DHT22;4703;48.748;19.142;2023-06-22T13:50:37;37.30;59.20
9329;DHT22;4703;48.748;19.142;2023-06-22T13:53:04;37.60;57.70
9329;DHT22;4703;48.748;19.142;2023-06-22T13:55:31;37.80;56.90
9329;DHT22;4703;48.748;19.142;2023-06-22T13:57:58;37.90;54.80
9329;DHT22;4703;48.748;19.142;2023-06-22T14:00:25;37.80;55.40
9329;DHT22;4703;48.748;19.142;2023-06-22T14:02:52;37.60;54.70
9329;DHT22;4703;48.748;19.142;2023-06-22T14:05:19;37.60;55.70
9329;DHT22;4703;48.748;19.142;2023-06-22T14:07:46;37.80;54.40
9329;DHT22;4703;48.748;19.142;2023-06-22T14:10:13;37.70;53.90
9329;DHT22;4703;48.748;19.142;2023-06-22T14:12:40;37.90;53.80
9329;DHT22;4703;48.748;19.142;2023-06-22T14:15:07;38.10;53.40
9329;DHT22;4703;48.748;19.142;2023-06-22T14:17:34;38.50;52.00
9329;DHT22;4703;48.748;19.142;2023-06-22T14:20:02;38.80;50.20
9329;DHT22;4703;48.748;19.142;2023-06-22T14:22:30;39.00;52.00
9329;DHT22;4703;48.748;19.142;2023-06-22T14:24:57;39.20;52.90
9329;DHT22;4703;48.748;19.142;2023-06-22T14:27:25;39.50;50.40
9329;DHT22;4703;48.748;19.142;2023-06-22T14:29:52;39.50;49.80
9329;DHT22;4703;48.748;19.142;2023-06-22T14:32:19;39.40;51.30
9329;DHT22;4703;48.748;19.142;2023-06-22T14:34:47;39.40;51.10
9329;DHT22;4703;48.748;19.142;2023-06-22T14:37:13;39.20;50.70
9329;DHT22;4703;48.748;19.142;2023-06-22T14:39:41;39.10;50.00
9329;DHT22;4703;48.748;19.142;2023-06-22T14:42:09;38.80;50.60
9329;DHT22;4703;48.748;19.142;2023-06-22T14:44:36;38.80;50.10
9329;DHT22;4703;48.748;19.142;2023-06-22T14:47:03;38.80;51.10
9329;DHT22;4703;48.748;19.142;2023-06-22T14:49:30;38.90;51.90
9329;DHT22;4703;48.748;19.142;2023-06-22T14:51:57;39.10;51.50
9329;DHT22;4703;48.748;19.142;2023-06-22T14:54:24;38.90;50.70
9329;DHT22;4703;48.748;19.142;2023-06-22T14:56:51;38.80;52.00
9329;DHT22;4703;48.748;19.142;2023-06-22T14:59:18;38.70;51.40
9329;DHT22;4703;48.748;19.142;2023-06-22T15:01:45;38.90;52.00
9329;DHT22;4703;48.748;19.142;2023-06-22T15:04:14;39.10;51.10
9329;DHT22;4703;48.748;19.142;2023-06-22T15:06:41;39.20;50.70
9329;DHT22;4703;48.748;19.142;2023-06-22T15:09:10;39.30;50.50
9329;DHT22;4703;48.748;19.142;2023-06-22T15:11:37;39.30;49.60
9329;DHT22;4703;48.748;19.142;2023-06-22T15:14:04;39.40;50.00
9329;DHT22;4703;48.748;19.142;2023-06-22T15:16:31;39.50;50.00
9329;DHT22;4703;48.748;19.142;2023-06-22T15:18:58;39.50;49.00
9329;DHT22;4703;48.748;19.142;2023-06-22T15:21:25;39.60;48.70
9329;DHT22;4703;48.748;19.142;2023-06-22T15:23:53;39.60;49.60
9329;DHT22;4703;48.748;19.142;2023-06-22T15:26:20;39.60;48.00
9329;DHT22;4703;48.748;19.142;2023-06-22T15:28:47;39.70;48.30
9329;DHT22;4703;48.748;19.142;2023-06-22T15:31:14;39.70;48.20
9329;DHT22;4703;48.748;19.142;2023-06-22T15:33:41;39.70;47.60
9329;DHT22;4703;48.748;19.142;2023-06-22T15:36:08;39.70;47.90
9329;DHT22;4703;48.748;19.142;2023-06-22T15:38:35;39.80;48.00
9329;DHT22;4703;48.748;19.142;2023-06-22T15:41:02;39.90;49.00
9329;DHT22;4703;48.748;19.142;2023-06-22T15:43:29;40.00;49.00
9329;DHT22;4703;48.748;19.142;2023-06-22T15:45:56;40.10;48.60
9329;DHT22;4703;48.748;19.142;2023-06-22T15:48:23;40.00;48.20
9329;DHT22;4703;48.748;19.142;2023-06-22T15:50:50;39.90;48.00
9329;DHT22;4703;48.748;19.142;2023-06-22T15:53:18;39.80;48.50
9329;DHT22;4703;48.748;19.142;2023-06-22T15:55:45;39.80;46.70
9329;DHT22;4703;48.748;19.142;2023-06-22T15:58:13;39.60;47.80